KDVO

Gnoss Field Airport

Novato, California, USA
METAR KDVO 151335Z AUTO 00000KT 4SM BR CLR 04/03 A3019 RMK AO2
Observed Flight Rules
Dec-15 @ 13:35 UTC (22 minutes ago) Marginal Visual Flight Rules
Wind Visibility Clouds Conditions
Calm 4 miles
  • Clear skies
  • Mist
Temperatures Readings
Current 4°C / 39°F
Dewpoint 3°C / 37°F
Humidity 93%
Altimeter 30.19" Hg
Pressure 1022 hPa
Elevation 1
METAR KDVO 151335Z AUTO 00000KT 4SM BR CLR 04/03 A3019 RMK AO2
Observed Flight Rules
Dec-15 @ 13:35 UTC
(22 minutes ago)
MVFR
Wind Visibility
Calm 4 miles
Clouds
  • Clear skies
Conditions
  • Mist
Temperature Dewpoint
4°C / 39°F 3°C / 37°F
Humidity Altimeter Pressure
93% 30.19" Hg 1022 hPa